sensor_id;sensor_type;location;lat;lon;timestamp;temperature;humidity
31263;DHT22;17892;52.080;9.006;2023-03-31T00:01:04;12.60;99.90
31263;DHT22;17892;52.080;9.006;2023-03-31T00:03:30;12.60;99.90
31263;DHT22;17892;52.080;9.006;2023-03-31T00:05:59;12.70;99.90
31263;DHT22;17892;52.080;9.006;2023-03-31T00:08:27;12.70;99.90
31263;DHT22;17892;52.080;9.006;2023-03-31T00:11:01;12.70;99.90
31263;DHT22;17892;52.080;9.006;2023-03-31T00:13:29;12.70;99.90
31263;DHT22;17892;52.080;9.006;2023-03-31T00:16:01;12.80;99.90
31263;DHT22;17892;52.080;9.006;2023-03-31T00:18:28;12.80;99.90
31263;DHT22;17892;52.080;9.006;2023-03-31T00:21:04;12.80;99.90
31263;DHT22;17892;52.080;9.006;2023-03-31T00:23:31;12.80;99.90
31263;DHT22;17892;52.080;9.006;2023-03-31T00:25:57;12.80;99.90
31263;DHT22;17892;52.080;9.006;2023-03-31T00:28:23;12.90;99.90
31263;DHT22;17892;52.080;9.006;2023-03-31T00:30:49;12.90;99.90
31263;DHT22;17892;52.080;9.006;2023-03-31T00:33:15;12.90;99.90
31263;DHT22;17892;52.080;9.006;2023-03-31T00:35:42;12.90;99.90
31263;DHT22;17892;52.080;9.006;2023-03-31T00:38:08;12.90;99.90
31263;DHT22;17892;52.080;9.006;2023-03-31T00:40:43;12.90;99.90
31263;DHT22;17892;52.080;9.006;2023-03-31T00:43:31;12.90;99.90
31263;DHT22;17892;52.080;9.006;2023-03-31T00:46:18;12.90;99.90
31263;DHT22;17892;52.080;9.006;2023-03-31T00:48:50;12.90;99.90
31263;DHT22;17892;52.080;9.006;2023-03-31T00:51:19;12.90;99.90
31263;DHT22;17892;52.080;9.006;2023-03-31T00:53:50;12.90;99.90
31263;DHT22;17892;52.080;9.006;2023-03-31T00:56:21;12.90;99.90
31263;DHT22;17892;52.080;9.006;2023-03-31T00:58:48;12.90;99.90
31263;DHT22;17892;52.080;9.006;2023-03-31T01:01:17;12.90;99.90
31263;DHT22;17892;52.080;9.006;2023-03-31T01:03:45;12.90;99.90
31263;DHT22;17892;52.080;9.006;2023-03-31T01:06:13;12.90;99.90
31263;DHT22;17892;52.080;9.006;2023-03-31T01:08:42;12.80;99.90
31263;DHT22;17892;52.080;9.006;2023-03-31T01:11:12;12.80;99.90
31263;DHT22;17892;52.080;9.006;2023-03-31T01:13:41;12.80;99.90
31263;DHT22;17892;52.080;9.006;2023-03-31T01:16:07;12.80;99.90
31263;DHT22;17892;52.080;9.006;2023-03-31T01:18:32;12.80;99.90
31263;DHT22;17892;52.080;9.006;2023-03-31T01:24:14;12.80;99.90
31263;DHT22;17892;52.080;9.006;2023-03-31T01:33:22;12.70;99.90
31263;DHT22;17892;52.080;9.006;2023-03-31T01:47:44;12.30;99.90
31263;DHT22;17892;52.080;9.006;2023-03-31T01:50:17;12.20;99.90
31263;DHT22;17892;52.080;9.006;2023-03-31T01:58:41;12.00;99.90
31263;DHT22;17892;52.080;9.006;2023-03-31T02:01:23;12.00;99.90
31263;DHT22;17892;52.080;9.006;2023-03-31T02:04:10;12.00;99.90
31263;DHT22;17892;52.080;9.006;2023-03-31T02:06:42;11.90;99.90
31263;DHT22;17892;52.080;9.006;2023-03-31T02:09:19;11.90;99.90
31263;DHT22;17892;52.080;9.006;2023-03-31T02:11:50;11.80;99.90
31263;DHT22;17892;52.080;9.006;2023-03-31T02:14:21;11.80;99.90
31263;DHT22;17892;52.080;9.006;2023-03-31T02:16:53;11.80;99.90
31263;DHT22;17892;52.080;9.006;2023-03-31T02:19:24;11.90;99.90
31263;DHT22;17892;52.080;9.006;2023-03-31T02:21:53;11.90;99.90
31263;DHT22;17892;52.080;9.006;2023-03-31T02:24:22;11.80;99.90
31263;DHT22;17892;52.080;9.006;2023-03-31T02:29:30;11.90;99.90
31263;DHT22;17892;52.080;9.006;2023-03-31T02:32:00;11.90;99.90
31263;DHT22;17892;52.080;9.006;2023-03-31T02:34:31;11.90;99.90
31263;DHT22;17892;52.080;9.006;2023-03-31T02:36:56;11.90;99.90
31263;DHT22;17892;52.080;9.006;2023-03-31T02:39:30;11.90;99.90
31263;DHT22;17892;52.080;9.006;2023-03-31T02:41:59;11.90;99.90
31263;DHT22;17892;52.080;9.006;2023-03-31T02:44:37;11.90;99.90
31263;DHT22;17892;52.080;9.006;2023-03-31T02:47:06;12.00;99.90
31263;DHT22;17892;52.080;9.006;2023-03-31T02:49:35;12.00;99.90
31263;DHT22;17892;52.080;9.006;2023-03-31T02:55:35;12.00;99.90
31263;DHT22;17892;52.080;9.006;2023-03-31T03:07:45;11.90;99.90
31263;DHT22;17892;52.080;9.006;2023-03-31T03:10:17;12.00;99.90
31263;DHT22;17892;52.080;9.006;2023-03-31T03:13:05;12.00;99.90
31263;DHT22;17892;52.080;9.006;2023-03-31T03:16:06;12.00;99.90
31263;DHT22;17892;52.080;9.006;2023-03-31T03:18:57;12.00;99.90
31263;DHT22;17892;52.080;9.006;2023-03-31T03:21:24;12.00;99.90
31263;DHT22;17892;52.080;9.006;2023-03-31T03:23:50;12.00;99.90
31263;DHT22;17892;52.080;9.006;2023-03-31T03:26:18;12.10;99.90
31263;DHT22;17892;52.080;9.006;2023-03-31T03:28:46;12.10;99.90
31263;DHT22;17892;52.080;9.006;2023-03-31T03:31:13;12.10;99.90
31263;DHT22;17892;52.080;9.006;2023-03-31T03:33:40;12.10;99.90
31263;DHT22;17892;52.080;9.006;2023-03-31T03:36:06;12.10;99.90
31263;DHT22;17892;52.080;9.006;2023-03-31T03:38:32;12.10;99.90
31263;DHT22;17892;52.080;9.006;2023-03-31T03:40:58;12.10;99.90
31263;DHT22;17892;52.080;9.006;2023-03-31T03:43:24;12.10;99.90
31263;DHT22;17892;52.080;9.006;2023-03-31T03:45:50;12.10;99.90
31263;DHT22;17892;52.080;9.006;2023-03-31T03:48:17;12.20;99.90
31263;DHT22;17892;52.080;9.006;2023-03-31T03:50:46;12.20;99.90
31263;DHT22;17892;52.080;9.006;2023-03-31T03:53:13;12.20;99.90
31263;DHT22;17892;52.080;9.006;2023-03-31T03:55:39;12.20;99.90
31263;DHT22;17892;52.080;9.006;2023-03-31T03:58:05;12.30;99.90
31263;DHT22;17892;52.080;9.006;2023-03-31T04:00:31;12.30;99.90
31263;DHT22;17892;52.080;9.006;2023-03-31T04:02:57;12.20;99.90
31263;DHT22;17892;52.080;9.006;2023-03-31T04:05:23;12.20;99.90
31263;DHT22;17892;52.080;9.006;2023-03-31T04:07:48;12.10;99.90
31263;DHT22;17892;52.080;9.006;2023-03-31T04:10:14;12.10;99.90
31263;DHT22;17892;52.080;9.006;2023-03-31T04:12:40;12.00;99.90
31263;DHT22;17892;52.080;9.006;2023-03-31T04:15:06;12.00;99.90
31263;DHT22;17892;52.080;9.006;2023-03-31T04:17:33;11.90;99.90
31263;DHT22;17892;52.080;9.006;2023-03-31T04:20:06;11.90;99.90
31263;DHT22;17892;52.080;9.006;2023-03-31T04:22:35;11.90;99.90
31263;DHT22;17892;52.080;9.006;2023-03-31T04:25:09;11.80;99.90
31263;DHT22;17892;52.080;9.006;2023-03-31T04:27:41;11.80;99.90
31263;DHT22;17892;52.080;9.006;2023-03-31T04:30:20;11.70;99.90
31263;DHT22;17892;52.080;9.006;2023-03-31T04:32:51;11.70;99.90
31263;DHT22;17892;52.080;9.006;2023-03-31T04:35:21;11.70;99.90
31263;DHT22;17892;52.080;9.006;2023-03-31T04:37:48;11.60;99.90
31263;DHT22;17892;52.080;9.006;2023-03-31T04:40:15;11.60;99.90
31263;DHT22;17892;52.080;9.006;2023-03-31T04:42:44;11.60;99.90
31263;DHT22;17892;52.080;9.006;2023-03-31T04:45:11;11.60;99.90
31263;DHT22;17892;52.080;9.006;2023-03-31T04:47:37;11.60;99.90
31263;DHT22;17892;52.080;9.006;2023-03-31T04:50:03;11.60;99.90
31263;DHT22;17892;52.080;9.006;2023-03-31T04:52:29;11.60;99.90
31263;DHT22;17892;52.080;9.006;2023-03-31T04:54:55;11.50;99.90
31263;DHT22;17892;52.080;9.006;2023-03-31T04:57:20;11.50;99.90
31263;DHT22;17892;52.080;9.006;2023-03-31T04:59:46;11.50;99.90
31263;DHT22;17892;52.080;9.006;2023-03-31T05:02:12;11.50;99.90
31263;DHT22;17892;52.080;9.006;2023-03-31T05:04:37;11.50;99.90
31263;DHT22;17892;52.080;9.006;2023-03-31T05:07:03;11.50;99.90
31263;DHT22;17892;52.080;9.006;2023-03-31T05:09:29;11.50;99.90
31263;DHT22;17892;52.080;9.006;2023-03-31T05:11:56;11.40;99.90
31263;DHT22;17892;52.080;9.006;2023-03-31T05:14:21;11.40;99.90
31263;DHT22;17892;52.080;9.006;2023-03-31T05:16:47;11.40;99.90
31263;DHT22;17892;52.080;9.006;2023-03-31T05:19:13;11.40;99.90
31263;DHT22;17892;52.080;9.006;2023-03-31T05:21:39;11.40;99.90
31263;DHT22;17892;52.080;9.006;2023-03-31T05:24:05;11.40;99.90
31263;DHT22;17892;52.080;9.006;2023-03-31T05:26:30;11.40;99.90
31263;DHT22;17892;52.080;9.006;2023-03-31T05:28:56;11.40;99.90
31263;DHT22;17892;52.080;9.006;2023-03-31T05:31:22;11.40;99.90
31263;DHT22;17892;52.080;9.006;2023-03-31T05:33:47;11.40;99.90
31263;DHT22;17892;52.080;9.006;2023-03-31T05:36:15;11.40;99.90
31263;DHT22;17892;52.080;9.006;2023-03-31T05:38:42;11.50;99.90
31263;DHT22;17892;52.080;9.006;2023-03-31T05:41:09;11.50;99.90
31263;DHT22;17892;52.080;9.006;2023-03-31T05:43:36;11.50;99.90
31263;DHT22;17892;52.080;9.006;2023-03-31T05:46:03;11.50;99.90
31263;DHT22;17892;52.080;9.006;2023-03-31T05:48:29;11.40;99.90
31263;DHT22;17892;52.080;9.006;2023-03-31T05:50:59;11.40;99.90
31263;DHT22;17892;52.080;9.006;2023-03-31T05:53:25;11.40;99.90
31263;DHT22;17892;52.080;9.006;2023-03-31T05:55:59;11.40;99.90
31263;DHT22;17892;52.080;9.006;2023-03-31T05:58:27;11.40;99.90
31263;DHT22;17892;52.080;9.006;2023-03-31T06:01:19;11.40;99.90
31263;DHT22;17892;52.080;9.006;2023-03-31T06:03:47;11.40;99.90
31263;DHT22;17892;52.080;9.006;2023-03-31T06:06:13;11.40;99.90
31263;DHT22;17892;52.080;9.006;2023-03-31T06:08:41;11.40;99.90
31263;DHT22;17892;52.080;9.006;2023-03-31T06:11:13;11.30;99.90
31263;DHT22;17892;52.080;9.006;2023-03-31T06:13:41;11.30;99.90
31263;DHT22;17892;52.080;9.006;2023-03-31T06:16:09;11.30;99.90
31263;DHT22;17892;52.080;9.006;2023-03-31T06:18:36;11.30;99.90
31263;DHT22;17892;52.080;9.006;2023-03-31T06:21:03;11.30;99.90
31263;DHT22;17892;52.080;9.006;2023-03-31T06:23:29;11.30;99.90
31263;DHT22;17892;52.080;9.006;2023-03-31T06:26:01;11.20;99.90
31263;DHT22;17892;52.080;9.006;2023-03-31T06:28:28;11.20;99.90
31263;DHT22;17892;52.080;9.006;2023-03-31T06:31:03;11.20;99.90
31263;DHT22;17892;52.080;9.006;2023-03-31T06:33:30;11.20;99.90
31263;DHT22;17892;52.080;9.006;2023-03-31T06:35:56;11.20;99.90
31263;DHT22;17892;52.080;9.006;2023-03-31T06:38:24;11.20;99.90
31263;DHT22;17892;52.080;9.006;2023-03-31T06:40:52;11.20;99.90
31263;DHT22;17892;52.080;9.006;2023-03-31T06:43:18;11.20;99.90
31263;DHT22;17892;52.080;9.006;2023-03-31T06:45:45;11.20;99.90
31263;DHT22;17892;52.080;9.006;2023-03-31T06:48:12;11.30;99.90
31263;DHT22;17892;52.080;9.006;2023-03-31T06:50:39;11.30;99.90
31263;DHT22;17892;52.080;9.006;2023-03-31T06:53:06;11.30;99.90
31263;DHT22;17892;52.080;9.006;2023-03-31T06:55:32;11.30;99.90
31263;DHT22;17892;52.080;9.006;2023-03-31T06:57:59;11.30;99.90
31263;DHT22;17892;52.080;9.006;2023-03-31T07:00:25;11.20;99.90
31263;DHT22;17892;52.080;9.006;2023-03-31T07:02:52;11.20;99.90
31263;DHT22;17892;52.080;9.006;2023-03-31T07:05:18;11.30;99.90
31263;DHT22;17892;52.080;9.006;2023-03-31T07:07:51;11.30;99.90
31263;DHT22;17892;52.080;9.006;2023-03-31T07:10:21;11.30;99.90
31263;DHT22;17892;52.080;9.006;2023-03-31T07:12:48;11.30;99.90
31263;DHT22;17892;52.080;9.006;2023-03-31T07:15:14;11.30;99.90
31263;DHT22;17892;52.080;9.006;2023-03-31T07:17:40;11.30;99.90
31263;DHT22;17892;52.080;9.006;2023-03-31T07:20:07;11.40;99.90
31263;DHT22;17892;52.080;9.006;2023-03-31T07:22:41;11.30;99.90
31263;DHT22;17892;52.080;9.006;2023-03-31T07:25:11;11.40;99.90
31263;DHT22;17892;52.080;9.006;2023-03-31T07:27:39;11.50;99.90
31263;DHT22;17892;52.080;9.006;2023-03-31T07:30:07;11.60;99.90
31263;DHT22;17892;52.080;9.006;2023-03-31T07:32:46;11.60;99.90
31263;DHT22;17892;52.080;9.006;2023-03-31T07:35:12;11.60;99.90
31263;DHT22;17892;52.080;9.006;2023-03-31T07:37:44;11.70;99.90
31263;DHT22;17892;52.080;9.006;2023-03-31T07:40:14;11.70;99.90
31263;DHT22;17892;52.080;9.006;2023-03-31T07:42:41;11.70;99.90
31263;DHT22;17892;52.080;9.006;2023-03-31T07:45:08;11.70;99.90
31263;DHT22;17892;52.080;9.006;2023-03-31T07:47:35;11.70;99.90
31263;DHT22;17892;52.080;9.006;2023-03-31T07:50:01;11.70;99.90
31263;DHT22;17892;52.080;9.006;2023-03-31T07:52:27;11.70;99.90
31263;DHT22;17892;52.080;9.006;2023-03-31T07:54:53;11.70;99.90
31263;DHT22;17892;52.080;9.006;2023-03-31T07:57:18;11.80;99.90
31263;DHT22;17892;52.080;9.006;2023-03-31T07:59:45;11.80;99.90
31263;DHT22;17892;52.080;9.006;2023-03-31T08:02:12;11.80;99.90
31263;DHT22;17892;52.080;9.006;2023-03-31T08:04:39;11.80;99.90
31263;DHT22;17892;52.080;9.006;2023-03-31T08:07:12;11.80;99.90
31263;DHT22;17892;52.080;9.006;2023-03-31T08:09:39;11.90;99.90
31263;DHT22;17892;52.080;9.006;2023-03-31T08:12:06;11.90;99.90
31263;DHT22;17892;52.080;9.006;2023-03-31T08:14:31;12.00;99.90
31263;DHT22;17892;52.080;9.006;2023-03-31T08:16:58;12.10;99.90
31263;DHT22;17892;52.080;9.006;2023-03-31T08:19:25;12.10;99.90
31263;DHT22;17892;52.080;9.006;2023-03-31T08:21:51;12.10;99.90
31263;DHT22;17892;52.080;9.006;2023-03-31T08:24:18;12.20;99.90
31263;DHT22;17892;52.080;9.006;2023-03-31T08:26:44;12.20;99.90
31263;DHT22;17892;52.080;9.006;2023-03-31T08:29:10;12.20;99.90
31263;DHT22;17892;52.080;9.006;2023-03-31T08:31:36;12.20;99.90
31263;DHT22;17892;52.080;9.006;2023-03-31T08:34:02;12.20;99.90
31263;DHT22;17892;52.080;9.006;2023-03-31T08:36:28;12.20;99.90
31263;DHT22;17892;52.080;9.006;2023-03-31T08:38:54;12.20;99.90
31263;DHT22;17892;52.080;9.006;2023-03-31T08:45:08;12.10;99.90
31263;DHT22;17892;52.080;9.006;2023-03-31T08:47:44;12.10;99.90
31263;DHT22;17892;52.080;9.006;2023-03-31T08:50:18;12.10;99.90
31263;DHT22;17892;52.080;9.006;2023-03-31T08:53:06;12.10;99.90
31263;DHT22;17892;52.080;9.006;2023-03-31T08:55:47;12.00;99.90
31263;DHT22;17892;52.080;9.006;2023-03-31T09:01:30;12.00;99.90
31263;DHT22;17892;52.080;9.006;2023-03-31T09:07:10;12.00;99.90
31263;DHT22;17892;52.080;9.006;2023-03-31T09:12:39;12.00;99.90
31263;DHT22;17892;52.080;9.006;2023-03-31T09:18:18;12.10;99.90
31263;DHT22;17892;52.080;9.006;2023-03-31T09:20:49;12.10;99.90
31263;DHT22;17892;52.080;9.006;2023-03-31T09:23:26;12.00;99.90
31263;DHT22;17892;52.080;9.006;2023-03-31T09:25:58;12.00;99.90
31263;DHT22;17892;52.080;9.006;2023-03-31T09:28:35;12.10;99.90
31263;DHT22;17892;52.080;9.006;2023-03-31T09:31:11;12.00;99.90
31263;DHT22;17892;52.080;9.006;2023-03-31T09:33:39;12.00;99.90
31263;DHT22;17892;52.080;9.006;2023-03-31T09:36:16;12.00;99.90
31263;DHT22;17892;52.080;9.006;2023-03-31T09:38:45;12.00;99.90
31263;DHT22;17892;52.080;9.006;2023-03-31T09:41:13;11.90;99.90
31263;DHT22;17892;52.080;9.006;2023-03-31T09:43:41;11.90;99.90
31263;DHT22;17892;52.080;9.006;2023-03-31T09:46:32;11.90;99.90
31263;DHT22;17892;52.080;9.006;2023-03-31T09:49:13;11.90;99.90
31263;DHT22;17892;52.080;9.006;2023-03-31T09:51:43;11.90;99.90
31263;DHT22;17892;52.080;9.006;2023-03-31T09:54:34;11.90;99.90
31263;DHT22;17892;52.080;9.006;2023-03-31T09:57:02;11.80;99.90
31263;DHT22;17892;52.080;9.006;2023-03-31T09:59:37;11.80;99.90
31263;DHT22;17892;52.080;9.006;2023-03-31T10:02:35;11.70;99.90
31263;DHT22;17892;52.080;9.006;2023-03-31T10:05:03;11.70;99.90
31263;DHT22;17892;52.080;9.006;2023-03-31T10:07:31;11.60;99.90
31263;DHT22;17892;52.080;9.006;2023-03-31T10:09:58;11.60;99.90
31263;DHT22;17892;52.080;9.006;2023-03-31T10:12:27;11.60;99.90
31263;DHT22;17892;52.080;9.006;2023-03-31T10:15:02;11.50;99.90
31263;DHT22;17892;52.080;9.006;2023-03-31T10:17:41;11.50;99.90
31263;DHT22;17892;52.080;9.006;2023-03-31T10:20:31;11.50;99.90
31263;DHT22;17892;52.080;9.006;2023-03-31T10:23:04;11.50;99.90
31263;DHT22;17892;52.080;9.006;2023-03-31T10:25:36;11.50;99.90
31263;DHT22;17892;52.080;9.006;2023-03-31T10:28:02;11.40;99.90
31263;DHT22;17892;52.080;9.006;2023-03-31T10:30:33;11.40;99.90
31263;DHT22;17892;52.080;9.006;2023-03-31T10:33:11;11.50;99.90
31263;DHT22;17892;52.080;9.006;2023-03-31T10:35:38;11.50;99.90
31263;DHT22;17892;52.080;9.006;2023-03-31T10:38:11;11.50;99.90
31263;DHT22;17892;52.080;9.006;2023-03-31T10:40:41;11.50;99.90
31263;DHT22;17892;52.080;9.006;2023-03-31T10:43:18;11.60;99.90
31263;DHT22;17892;52.080;9.006;2023-03-31T10:45:50;11.60;99.90
31263;DHT22;17892;52.080;9.006;2023-03-31T10:48:26;11.70;99.90
31263;DHT22;17892;52.080;9.006;2023-03-31T10:51:05;11.70;99.90
31263;DHT22;17892;52.080;9.006;2023-03-31T10:53:41;11.70;99.90
31263;DHT22;17892;52.080;9.006;2023-03-31T10:56:38;11.80;99.90
31263;DHT22;17892;52.080;9.006;2023-03-31T10:59:31;11.80;99.90
31263;DHT22;17892;52.080;9.006;2023-03-31T11:05:16;11.80;99.90
31263;DHT22;17892;52.080;9.006;2023-03-31T11:07:57;11.90;99.90
31263;DHT22;17892;52.080;9.006;2023-03-31T11:13:39;12.00;99.90
31263;DHT22;17892;52.080;9.006;2023-03-31T11:16:45;12.10;99.90
31263;DHT22;17892;52.080;9.006;2023-03-31T11:19:30;12.20;99.90
31263;DHT22;17892;52.080;9.006;2023-03-31T11:22:26;12.40;99.90
31263;DHT22;17892;52.080;9.006;2023-03-31T11:25:36;12.50;99.90
31263;DHT22;17892;52.080;9.006;2023-03-31T11:28:45;12.50;99.90
31263;DHT22;17892;52.080;9.006;2023-03-31T11:34:10;12.60;99.90
31263;DHT22;17892;52.080;9.006;2023-03-31T11:43:11;12.60;99.90
31263;DHT22;17892;52.080;9.006;2023-03-31T11:54:19;12.90;99.90
31263;DHT22;17892;52.080;9.006;2023-03-31T11:57:05;13.00;99.90
31263;DHT22;17892;52.080;9.006;2023-03-31T11:59:36;13.20;99.90
31263;DHT22;17892;52.080;9.006;2023-03-31T12:02:17;13.30;99.90
31263;DHT22;17892;52.080;9.006;2023-03-31T12:04:51;13.30;99.90
31263;DHT22;17892;52.080;9.006;2023-03-31T12:10:38;13.50;99.90
31263;DHT22;17892;52.080;9.006;2023-03-31T12:13:33;13.60;99.90
31263;DHT22;17892;52.080;9.006;2023-03-31T12:16:22;13.70;99.90
31263;DHT22;17892;52.080;9.006;2023-03-31T12:21:31;13.80;99.90
31263;DHT22;17892;52.080;9.006;2023-03-31T12:23:57;13.80;99.90
31263;DHT22;17892;52.080;9.006;2023-03-31T12:26:37;13.80;99.90
31263;DHT22;17892;52.080;9.006;2023-03-31T12:31:56;14.00;99.90
31263;DHT22;17892;52.080;9.006;2023-03-31T12:34:26;14.10;99.90
31263;DHT22;17892;52.080;9.006;2023-03-31T12:37:07;14.20;99.90
31263;DHT22;17892;52.080;9.006;2023-03-31T12:43:22;14.30;99.90
31263;DHT22;17892;52.080;9.006;2023-03-31T12:59:36;14.70;99.90
31263;DHT22;17892;52.080;9.006;2023-03-31T13:04:35;15.00;99.90
31263;DHT22;17892;52.080;9.006;2023-03-31T13:07:02;15.00;99.90
31263;DHT22;17892;52.080;9.006;2023-03-31T13:12:05;15.20;99.90
31263;DHT22;17892;52.080;9.006;2023-03-31T13:14:39;15.20;99.90
31263;DHT22;17892;52.080;9.006;2023-03-31T13:17:34;15.20;99.90
31263;DHT22;17892;52.080;9.006;2023-03-31T13:23:19;15.40;99.90
31263;DHT22;17892;52.080;9.006;2023-03-31T13:25:54;15.50;99.90
31263;DHT22;17892;52.080;9.006;2023-03-31T13:30:50;15.70;99.90
31263;DHT22;17892;52.080;9.006;2023-03-31T13:42:35;16.40;99.90
31263;DHT22;17892;52.080;9.006;2023-03-31T13:48:54;16.70;99.90
31263;DHT22;17892;52.080;9.006;2023-03-31T13:58:18;16.10;99.90
31263;DHT22;17892;52.080;9.006;2023-03-31T14:07:14;14.70;99.90
31263;DHT22;17892;52.080;9.006;2023-03-31T14:09:44;14.40;99.90
31263;DHT22;17892;52.080;9.006;2023-03-31T14:12:22;14.20;99.90
31263;DHT22;17892;52.080;9.006;2023-03-31T14:14:56;14.00;99.90
31263;DHT22;17892;52.080;9.006;2023-03-31T14:17:26;13.80;99.90
31263;DHT22;17892;52.080;9.006;2023-03-31T14:32:37;13.70;99.90
31263;DHT22;17892;52.080;9.006;2023-03-31T14:35:30;13.70;99.90
31263;DHT22;17892;52.080;9.006;2023-03-31T14:38:05;13.80;99.90
31263;DHT22;17892;52.080;9.006;2023-03-31T14:40:45;13.80;99.90
31263;DHT22;17892;52.080;9.006;2023-03-31T14:43:21;13.70;99.90
31263;DHT22;17892;52.080;9.006;2023-03-31T14:46:08;13.70;99.90
31263;DHT22;17892;52.080;9.006;2023-03-31T14:48:42;13.70;99.90
31263;DHT22;17892;52.080;9.006;2023-03-31T14:51:09;13.60;99.90
31263;DHT22;17892;52.080;9.006;2023-03-31T14:53:36;13.60;99.90
31263;DHT22;17892;52.080;9.006;2023-03-31T14:56:06;13.60;99.90
31263;DHT22;17892;52.080;9.006;2023-03-31T14:58:47;13.60;99.90
31263;DHT22;17892;52.080;9.006;2023-03-31T15:01:18;13.50;99.90
31263;DHT22;17892;52.080;9.006;2023-03-31T15:03:48;13.50;99.90
31263;DHT22;17892;52.080;9.006;2023-03-31T15:06:15;13.50;99.90
31263;DHT22;17892;52.080;9.006;2023-03-31T15:08:40;13.60;99.90
31263;DHT22;17892;52.080;9.006;2023-03-31T15:11:11;13.60;99.90
31263;DHT22;17892;52.080;9.006;2023-03-31T15:13:44;13.70;99.90
31263;DHT22;17892;52.080;9.006;2023-03-31T15:16:39;13.70;99.90
31263;DHT22;17892;52.080;9.006;2023-03-31T15:19:26;13.90;99.90
31263;DHT22;17892;52.080;9.006;2023-03-31T15:22:00;13.80;99.90
31263;DHT22;17892;52.080;9.006;2023-03-31T15:24:29;13.70;99.90
31263;DHT22;17892;52.080;9.006;2023-03-31T15:27:00;13.90;99.90
31263;DHT22;17892;52.080;9.006;2023-03-31T15:32:00;13.90;99.90
31263;DHT22;17892;52.080;9.006;2023-03-31T15:34:30;13.90;99.90
31263;DHT22;17892;52.080;9.006;2023-03-31T15:37:06;13.90;99.90
31263;DHT22;17892;52.080;9.006;2023-03-31T15:39:32;13.90;99.90
31263;DHT22;17892;52.080;9.006;2023-03-31T15:42:02;13.90;99.90
31263;DHT22;17892;52.080;9.006;2023-03-31T15:47:22;13.80;99.90
31263;DHT22;17892;52.080;9.006;2023-03-31T15:52:38;13.70;99.90
31263;DHT22;17892;52.080;9.006;2023-03-31T15:55:28;13.70;99.90
31263;DHT22;17892;52.080;9.006;2023-03-31T15:57:58;13.60;99.90
31263;DHT22;17892;52.080;9.006;2023-03-31T16:03:13;13.50;99.90
31263;DHT22;17892;52.080;9.006;2023-03-31T16:11:58;13.40;99.90
31263;DHT22;17892;52.080;9.006;2023-03-31T16:14:33;13.30;99.90
31263;DHT22;17892;52.080;9.006;2023-03-31T16:17:06;13.30;99.90
31263;DHT22;17892;52.080;9.006;2023-03-31T16:19:52;13.30;99.90
31263;DHT22;17892;52.080;9.006;2023-03-31T16:22:45;13.30;99.90
31263;DHT22;17892;52.080;9.006;2023-03-31T16:25:16;13.30;99.90
31263;DHT22;17892;52.080;9.006;2023-03-31T16:27:46;13.30;99.90
31263;DHT22;17892;52.080;9.006;2023-03-31T16:30:19;13.30;99.90
31263;DHT22;17892;52.080;9.006;2023-03-31T16:33:07;13.30;99.90
31263;DHT22;17892;52.080;9.006;2023-03-31T16:35:42;13.30;99.90
31263;DHT22;17892;52.080;9.006;2023-03-31T16:38:11;13.30;99.90
31263;DHT22;17892;52.080;9.006;2023-03-31T16:40:42;13.20;99.90
31263;DHT22;17892;52.080;9.006;2023-03-31T16:43:13;13.20;99.90
31263;DHT22;17892;52.080;9.006;2023-03-31T16:45:42;13.10;99.90
31263;DHT22;17892;52.080;9.006;2023-03-31T16:48:10;13.10;99.90
31263;DHT22;17892;52.080;9.006;2023-03-31T16:50:36;13.00;99.90
31263;DHT22;17892;52.080;9.006;2023-03-31T16:53:01;13.00;99.90
31263;DHT22;17892;52.080;9.006;2023-03-31T16:55:29;13.00;99.90
31263;DHT22;17892;52.080;9.006;2023-03-31T16:57:58;12.90;99.90
31263;DHT22;17892;52.080;9.006;2023-03-31T17:00:30;12.90;99.90
31263;DHT22;17892;52.080;9.006;2023-03-31T17:02:59;12.90;99.90
31263;DHT22;17892;52.080;9.006;2023-03-31T17:05:26;12.90;99.90
31263;DHT22;17892;52.080;9.006;2023-03-31T17:07:53;12.90;99.90
31263;DHT22;17892;52.080;9.006;2023-03-31T17:10:20;12.90;99.90
31263;DHT22;17892;52.080;9.006;2023-03-31T17:12:46;12.80;99.90
31263;DHT22;17892;52.080;9.006;2023-03-31T17:15:11;12.80;99.90
31263;DHT22;17892;52.080;9.006;2023-03-31T17:17:38;12.80;99.90
31263;DHT22;17892;52.080;9.006;2023-03-31T17:20:04;12.80;99.90
31263;DHT22;17892;52.080;9.006;2023-03-31T17:22:31;12.80;99.90
31263;DHT22;17892;52.080;9.006;2023-03-31T17:24:57;12.70;99.90
31263;DHT22;17892;52.080;9.006;2023-03-31T17:27:25;12.70;99.90
31263;DHT22;17892;52.080;9.006;2023-03-31T17:29:52;12.70;99.90
31263;DHT22;17892;52.080;9.006;2023-03-31T17:32:19;12.70;99.90
31263;DHT22;17892;52.080;9.006;2023-03-31T17:34:45;12.70;99.90
31263;DHT22;17892;52.080;9.006;2023-03-31T17:37:15;12.70;99.90
31263;DHT22;17892;52.080;9.006;2023-03-31T17:39:42;12.70;99.90
31263;DHT22;17892;52.080;9.006;2023-03-31T17:42:09;12.50;99.90
31263;DHT22;17892;52.080;9.006;2023-03-31T17:44:36;12.60;99.90
31263;DHT22;17892;52.080;9.006;2023-03-31T17:47:02;12.60;99.90
31263;DHT22;17892;52.080;9.006;2023-03-31T17:49:28;12.50;99.90
31263;DHT22;17892;52.080;9.006;2023-03-31T17:51:54;12.50;99.90
31263;DHT22;17892;52.080;9.006;2023-03-31T17:54:19;12.40;99.90
31263;DHT22;17892;52.080;9.006;2023-03-31T17:56:46;12.30;99.90
31263;DHT22;17892;52.080;9.006;2023-03-31T17:59:15;12.30;99.90
31263;DHT22;17892;52.080;9.006;2023-03-31T18:01:41;12.20;99.90
31263;DHT22;17892;52.080;9.006;2023-03-31T18:04:07;12.20;99.90
31263;DHT22;17892;52.080;9.006;2023-03-31T18:06:33;12.10;99.90
31263;DHT22;17892;52.080;9.006;2023-03-31T18:08:59;12.10;99.90
31263;DHT22;17892;52.080;9.006;2023-03-31T18:11:25;12.10;99.90
31263;DHT22;17892;52.080;9.006;2023-03-31T18:13:51;12.00;99.90
31263;DHT22;17892;52.080;9.006;2023-03-31T18:16:18;11.90;99.90
31263;DHT22;17892;52.080;9.006;2023-03-31T18:18:44;12.00;99.90
31263;DHT22;17892;52.080;9.006;2023-03-31T18:21:12;11.90;99.90
31263;DHT22;17892;52.080;9.006;2023-03-31T18:23:39;11.90;99.90
31263;DHT22;17892;52.080;9.006;2023-03-31T18:26:10;11.90;99.90
31263;DHT22;17892;52.080;9.006;2023-03-31T18:28:36;11.90;99.90
31263;DHT22;17892;52.080;9.006;2023-03-31T18:31:05;11.80;99.90
31263;DHT22;17892;52.080;9.006;2023-03-31T18:33:32;11.80;99.90
31263;DHT22;17892;52.080;9.006;2023-03-31T18:35:58;11.80;99.90
31263;DHT22;17892;52.080;9.006;2023-03-31T18:38:25;11.80;99.90
31263;DHT22;17892;52.080;9.006;2023-03-31T18:40:52;11.90;99.90
31263;DHT22;17892;52.080;9.006;2023-03-31T18:43:19;11.90;99.90
31263;DHT22;17892;52.080;9.006;2023-03-31T18:45:50;11.90;99.90
31263;DHT22;17892;52.080;9.006;2023-03-31T18:48:18;11.90;99.90
31263;DHT22;17892;52.080;9.006;2023-03-31T18:50:47;11.90;99.90